Terminal Aerodrome Forecast
Issued by NWS

Home | Current Version | Previous Version | Text Only | Print | Product List | Glossary On
Versions: 1 2 3 4 5 6 7 8 9 10 11 12 13 14 15
000
FTUS44 KLIX 302300
TAFMCB
TAF
KMCB 302340Z 3100/3124 VRB03KT P6SM SKC
     FM311100 00000KT P6SM SCT030 BKN090
     FM311700 VRB03KT P6SM VCTS SCT030 BKN090CB
     FM312300 VRB03KT P6SM BKN080=

USA.gov is the U.S. government's official web portal to all federal, state and local government web resources and services.